Аэропорт: Актобе. Актобе

ICAO: UATT

METAR:
2021-07-28 13:30:00
UATT 281330Z 35004MPS CAVOK 28/10 Q1009 R30/70D NOSIG RMK QFE737/0983
METAR:
2021-07-28 11:00:00
TAF UATT 281100Z 2812/2912 35007MPS 9999 SCT050 TX27/2812Z TN11/2901Z